createdAt,value
2023-02-11T00:00:24.177Z,102997.59
2023-02-11T00:05:26.830Z,103001.03
2023-02-11T00:10:29.640Z,102991.66
2023-02-11T00:15:32.294Z,102993.31
2023-02-11T00:20:34.796Z,102983.81
2023-02-11T00:25:45.377Z,102974.31
2023-02-11T00:30:58.440Z,102965.59
2023-02-11T00:36:09.381Z,102968.09
2023-02-11T00:41:13.624Z,102968.22
2023-02-11T00:46:16.993Z,102961.31
2023-02-11T00:51:19.701Z,102961.44
2023-02-11T00:56:22.560Z,102963.31
2023-02-11T01:01:25.504Z,102951.19
2023-02-11T01:06:28.296Z,102952.78
2023-02-11T01:11:30.933Z,102955.47
2023-02-11T01:16:33.548Z,102964.97
2023-02-11T01:21:36.239Z,102971.13
2023-02-11T01:26:38.861Z,102967.72
2023-02-11T01:31:41.447Z,102974.69
2023-02-11T01:36:43.978Z,102963.50
2023-02-11T01:41:46.762Z,102960.94
2023-02-11T01:46:49.616Z,102961.91
2023-02-11T01:52:10.578Z,102956.78
2023-02-11T01:57:23.032Z,102955.97
2023-02-11T02:02:40.854Z,102961.22
2023-02-11T02:07:51.573Z,102960.34
2023-02-11T02:12:55.036Z,102946.44
2023-02-11T02:18:30.718Z,102948.16
2023-02-11T02:24:04.574Z,102959.38
2023-02-11T02:29:49.010Z,102960.13
2023-02-11T02:35:02.403Z,102961.91
2023-02-11T02:40:13.143Z,102949.72
2023-02-11T02:45:17.055Z,102948.00
2023-02-11T02:50:25.449Z,102935.91
2023-02-11T02:55:49.751Z,102937.72
2023-02-11T03:01:50.394Z,102935.22
2023-02-11T03:07:14.315Z,102930.06
2023-02-11T03:12:17.960Z,102937.97
2023-02-11T03:17:24.308Z,102934.53
2023-02-11T03:22:43.116Z,102931.06
2023-02-11T03:28:14.061Z,102933.69
2023-02-11T03:33:34.995Z,102925.00
2023-02-11T03:38:44.027Z,102927.56
2023-02-11T03:43:50.894Z,102933.66
2023-02-11T03:48:58.975Z,102924.16
2023-02-11T03:54:05.157Z,102927.59
2023-02-11T03:59:09.537Z,102935.44
2023-02-11T04:04:12.325Z,102912.00
2023-02-11T04:09:15.519Z,102911.19
2023-02-11T04:14:18.096Z,102905.09
2023-02-11T04:19:21.062Z,102906.78
2023-02-11T04:24:24.005Z,102916.38
2023-02-11T04:29:27.161Z,102903.41
2023-02-11T04:34:29.965Z,102917.94
2023-02-11T04:39:32.719Z,102916.25
2023-02-11T04:44:35.289Z,102906.53
2023-02-11T04:49:37.750Z,102906.69
2023-02-11T04:54:40.877Z,102880.16
2023-02-11T04:59:43.524Z,102879.44
2023-02-11T05:04:46.416Z,102894.72
2023-02-11T05:09:49.256Z,102882.44
2023-02-11T05:14:51.898Z,102871.97
2023-02-11T05:19:54.567Z,102888.88
2023-02-11T05:24:57.023Z,102898.56
2023-02-11T05:29:59.529Z,102886.75
2023-02-11T05:35:02.251Z,102886.16
2023-02-11T05:40:06.391Z,102908.63
2023-02-11T05:45:09.708Z,102901.44
2023-02-11T05:50:12.983Z,102896.56
2023-02-11T05:55:16.137Z,102910.22
2023-02-11T06:00:19.327Z,102904.91
2023-02-11T06:05:22.075Z,102891.91
2023-02-11T06:10:24.580Z,102881.78
2023-02-11T06:15:27.482Z,102889.16
2023-02-11T06:20:30.278Z,102900.78
2023-02-11T06:25:33.240Z,102897.06
2023-02-11T06:30:37.481Z,102894.44
2023-02-11T06:35:40.596Z,102896.00
2023-02-11T06:40:48.506Z,102896.72
2023-02-11T06:45:56.092Z,102879.84
2023-02-11T06:51:04.075Z,102867.97
2023-02-11T06:56:09.129Z,102853.59
2023-02-11T07:01:14.504Z,102853.84
2023-02-11T07:06:19.296Z,102853.00
2023-02-11T07:11:28.689Z,102842.50
2023-02-11T07:16:32.728Z,102805.09
2023-02-11T07:21:35.817Z,102810.41
2023-02-11T07:26:38.857Z,102833.88
2023-02-11T07:31:44.392Z,102824.03
2023-02-11T07:36:49.185Z,102818.25
2023-02-11T07:41:52.009Z,102838.59
2023-02-11T07:46:55.233Z,102830.28
2023-02-11T07:51:58.108Z,102846.84
2023-02-11T07:57:00.941Z,102838.13
2023-02-11T08:02:03.989Z,102848.19
2023-02-11T08:07:07.166Z,102836.31
2023-02-11T08:12:10.207Z,102805.09
2023-02-11T08:17:12.847Z,102798.00
2023-02-11T08:22:15.537Z,102780.25
2023-02-11T08:27:18.194Z,102801.88
2023-02-11T08:32:21.590Z,102802.03
2023-02-11T08:37:24.387Z,102792.88
2023-02-11T08:42:27.124Z,102780.81
2023-02-11T08:47:32.697Z,102768.84
2023-02-11T08:52:36.968Z,102750.94
2023-02-11T08:57:42.842Z,102735.88
2023-02-11T09:02:45.952Z,102733.63
2023-02-11T09:07:49.144Z,102718.13
2023-02-11T09:12:51.876Z,102717.75
2023-02-11T09:17:54.603Z,102703.38
2023-02-11T09:22:58.889Z,102689.94
2023-02-11T09:28:05.226Z,102679.09
2023-02-11T09:33:10.730Z,102674.91
2023-02-11T09:38:13.577Z,102654.56
2023-02-11T09:43:23.449Z,102653.06
2023-02-11T09:48:27.008Z,102645.25
2023-02-11T09:53:36.577Z,102642.03
2023-02-11T09:58:41.798Z,102649.06
2023-02-11T10:04:13.323Z,102654.59
2023-02-11T10:09:46.103Z,102658.88
2023-02-11T10:15:13.923Z,102652.13
2023-02-11T10:20:43.789Z,102648.78
2023-02-11T10:25:51.079Z,102649.84
2023-02-11T10:31:06.797Z,102645.25
2023-02-11T10:36:16.637Z,102639.63
2023-02-11T10:41:31.381Z,102623.34
2023-02-11T10:46:37.234Z,102621.59
2023-02-11T10:51:39.946Z,102617.59
2023-02-11T10:56:55.147Z,102605.00
2023-02-11T11:02:01.368Z,102605.56
2023-02-11T11:07:20.762Z,102599.22
2023-02-11T11:12:33.770Z,102596.66
2023-02-11T11:17:39.297Z,102587.72
2023-02-11T11:22:43.861Z,102577.13
2023-02-11T11:27:51.070Z,102584.63
2023-02-11T11:32:54.245Z,102594.50
2023-02-11T11:38:03.538Z,102583.22
2023-02-11T11:43:15.252Z,102591.97
2023-02-11T11:48:47.306Z,102590.03
2023-02-11T11:54:01.800Z,102583.34
2023-02-11T11:59:17.741Z,102592.81
2023-02-11T12:04:42.420Z,102584.97
2023-02-11T12:10:13.121Z,102587.16
2023-02-11T12:15:32.608Z,102587.09
2023-02-11T12:21:03.136Z,102592.81
2023-02-11T12:26:29.705Z,102590.50
2023-02-11T12:31:56.297Z,102577.41
2023-02-11T12:37:10.497Z,102567.31
2023-02-11T12:42:34.764Z,102571.84
2023-02-11T12:47:50.496Z,102566.31
2023-02-11T12:53:06.135Z,102566.13
2023-02-11T12:58:18.709Z,102564.91
2023-02-11T13:03:29.282Z,102561.69
2023-02-11T13:08:38.051Z,102563.53
2023-02-11T13:13:52.799Z,102563.22
2023-02-11T13:19:11.684Z,102563.53
2023-02-11T13:24:50.871Z,102556.00
2023-02-11T13:29:58.608Z,102553.47
2023-02-11T13:35:01.377Z,102557.91
2023-02-11T13:40:22.392Z,102541.78
2023-02-11T13:45:37.355Z,102546.94
2023-02-11T13:50:51.110Z,102520.09
2023-02-11T13:56:10.209Z,102518.94
2023-02-11T14:01:42.770Z,102536.88
2023-02-11T14:07:47.444Z,102545.16
2023-02-11T14:13:17.039Z,102535.03
2023-02-11T14:18:53.567Z,102531.06
2023-02-11T14:24:02.183Z,102539.53
2023-02-11T14:29:28.216Z,102532.22
2023-02-11T14:34:56.794Z,102533.22
2023-02-11T14:40:12.543Z,102542.25
2023-02-11T14:45:37.447Z,102536.88
2023-02-11T14:50:51.750Z,102532.22
2023-02-11T14:55:56.681Z,102524.88
2023-02-11T15:01:01.636Z,102533.09
2023-02-11T15:06:23.538Z,102520.31
2023-02-11T15:11:26.438Z,102519.75
2023-02-11T15:16:29.650Z,102535.47
2023-02-11T15:21:36.330Z,102535.91
2023-02-11T15:26:39.233Z,102527.25
2023-02-11T15:31:42.012Z,102521.34
2023-02-11T15:36:44.878Z,102517.16
2023-02-11T15:41:47.545Z,102519.09
2023-02-11T15:46:50.416Z,102525.28
2023-02-11T15:51:57.206Z,102532.81
2023-02-11T15:57:04.358Z,102537.31
2023-02-11T16:02:20.544Z,102531.16
2023-02-11T16:07:48.120Z,102521.66
2023-02-11T16:12:54.735Z,102520.91
2023-02-11T16:17:58.397Z,102521.25
2023-02-11T16:23:03.336Z,102514.84
2023-02-11T16:28:06.080Z,102506.78
2023-02-11T16:33:11.467Z,102508.66
2023-02-11T16:38:14.157Z,102500.22
2023-02-11T16:43:20.537Z,102487.22
2023-02-11T16:48:23.559Z,102491.53
2023-02-11T16:53:26.703Z,102481.16
2023-02-11T16:58:29.495Z,102478.47
2023-02-11T17:03:36.484Z,102477.72
2023-02-11T17:08:39.758Z,102469.25
2023-02-11T17:13:43.643Z,102481.59
2023-02-11T17:18:47.061Z,102465.13
2023-02-11T17:23:49.997Z,102458.84
2023-02-11T17:28:52.944Z,102442.31
2023-02-11T17:33:56.109Z,102440.59
2023-02-11T17:38:59.253Z,102438.09
2023-02-11T17:44:02.945Z,102432.16
2023-02-11T17:49:05.517Z,102425.91
2023-02-11T17:54:14.722Z,102421.50
2023-02-11T17:59:17.523Z,102411.81
2023-02-11T18:04:21.742Z,102419.53
2023-02-11T18:09:26.186Z,102417.00
2023-02-11T18:14:28.973Z,102398.84
2023-02-11T18:19:33.306Z,102402.22
2023-02-11T18:24:36.074Z,102407.41
2023-02-11T18:29:38.711Z,102397.31
2023-02-11T18:34:42.082Z,102401.28
2023-02-11T18:39:44.772Z,102400.44
2023-02-11T18:44:47.682Z,102385.84
2023-02-11T18:49:50.889Z,102378.06
2023-02-11T18:54:53.619Z,102370.63
2023-02-11T18:59:56.419Z,102353.53
2023-02-11T19:04:59.506Z,102363.97
2023-02-11T19:10:02.552Z,102353.88
2023-02-11T19:15:08.090Z,102348.03
2023-02-11T19:20:11.089Z,102339.81
2023-02-11T19:25:13.995Z,102334.88
2023-02-11T19:30:16.894Z,102325.44
2023-02-11T19:35:20.402Z,102321.00
2023-02-11T19:40:23.781Z,102327.19
2023-02-11T19:45:27.406Z,102321.75
2023-02-11T19:50:30.870Z,102318.22
2023-02-11T19:55:35.496Z,102285.41
2023-02-11T20:00:38.711Z,102307.38
2023-02-11T20:05:43.840Z,102302.94
2023-02-11T20:10:47.289Z,102290.75
2023-02-11T20:15:50.253Z,102282.13
2023-02-11T20:20:53.493Z,102277.75
2023-02-11T20:25:56.468Z,102275.16
2023-02-11T20:31:00.068Z,102287.25
2023-02-11T20:36:07.952Z,102281.59
2023-02-11T20:41:16.809Z,102282.78
2023-02-11T20:46:23.456Z,102279.22
2023-02-11T20:51:29.279Z,102278.63
2023-02-11T20:56:48.884Z,102255.50
2023-02-11T21:01:55.569Z,102261.03
2023-02-11T21:07:02.516Z,102261.66
2023-02-11T21:12:06.616Z,102257.31
2023-02-11T21:17:09.467Z,102256.94
2023-02-11T21:22:12.298Z,102232.69
2023-02-11T21:27:15.024Z,102244.06
2023-02-11T21:32:17.926Z,102235.72
2023-02-11T21:37:21.385Z,102237.28
2023-02-11T21:42:24.371Z,102238.13
2023-02-11T21:47:27.589Z,102220.78
2023-02-11T21:52:30.502Z,102228.53
2023-02-11T21:57:33.006Z,102209.56
2023-02-11T22:02:37.646Z,102205.84
2023-02-11T22:07:40.262Z,102200.63
2023-02-11T22:12:43.105Z,102194.69
2023-02-11T22:17:45.770Z,102179.81
2023-02-11T22:22:48.437Z,102172.84
2023-02-11T22:27:51.225Z,102172.44
2023-02-11T22:32:53.863Z,102162.94
2023-02-11T22:37:56.391Z,102161.25
2023-02-11T22:42:59.233Z,102153.44
2023-02-11T22:48:01.991Z,102145.91
2023-02-11T22:53:04.729Z,102140.88
2023-02-11T22:58:07.644Z,102147.81
2023-02-11T23:03:12.052Z,102139.34
2023-02-11T23:08:14.644Z,102134.63
2023-02-11T23:13:17.588Z,102128.69
2023-02-11T23:18:20.451Z,102128.97
2023-02-11T23:23:23.229Z,102123.94
2023-02-11T23:28:25.899Z,102127.34
2023-02-11T23:33:28.496Z,102117.22
2023-02-11T23:38:31.514Z,102126.69
2023-02-11T23:43:34.271Z,102111.59
2023-02-11T23:48:37.964Z,102094.66
2023-02-11T23:53:41.033Z,102093.72
2023-02-11T23:58:45.102Z,102096.31
